createdAt,value
2023-03-18T00:01:55.408Z,101933.66
2023-03-18T00:04:23.622Z,101936.84
2023-03-18T00:06:50.443Z,101930.69
2023-03-18T00:09:17.259Z,101937.59
2023-03-18T00:11:45.476Z,101940.75
2023-03-18T00:14:12.046Z,101943.91
2023-03-18T00:16:40.926Z,101949.84
2023-03-18T00:19:07.820Z,101946.94
2023-03-18T00:21:34.253Z,101946.97
2023-03-18T00:24:01.886Z,101951.53
2023-03-18T00:26:28.757Z,101961.38
2023-03-18T00:28:56.652Z,101965.75
2023-03-18T00:31:24.057Z,101967.59
2023-03-18T00:33:51.445Z,101965.56
2023-03-18T00:36:24.838Z,101975.47
2023-03-18T00:38:56.938Z,101970.13
2023-03-18T00:41:25.659Z,101969.78
2023-03-18T00:43:53.559Z,101982.94
2023-03-18T00:46:23.833Z,101962.63
2023-03-18T00:48:52.519Z,101975.81
2023-03-18T00:51:22.075Z,101974.91
2023-03-18T00:53:55.435Z,101971.16
2023-03-18T00:56:24.996Z,101967.72
2023-03-18T00:58:53.255Z,101980.94
2023-03-18T01:01:21.319Z,101980.22
2023-03-18T01:03:49.497Z,101983.66
2023-03-18T01:06:22.022Z,101983.56
2023-03-18T01:08:49.496Z,101988.03
2023-03-18T01:11:16.329Z,101991.78
2023-03-18T01:13:45.578Z,101986.13
2023-03-18T01:16:13.627Z,101992.50
2023-03-18T01:18:40.942Z,101997.50
2023-03-18T01:21:08.719Z,101995.47
2023-03-18T01:23:36.640Z,102005.66
2023-03-18T01:26:04.029Z,102005.25
2023-03-18T01:28:32.008Z,102001.72
2023-03-18T01:30:59.892Z,102011.28
2023-03-18T01:33:27.061Z,102012.75
2023-03-18T01:35:57.173Z,102018.12
2023-03-18T01:38:26.830Z,102026.66
2023-03-18T01:40:54.043Z,102019.25
2023-03-18T01:43:24.502Z,102024.19
2023-03-18T01:45:55.617Z,102020.81
2023-03-18T01:48:25.180Z,102025.25
2023-03-18T01:51:03.485Z,102028.81
2023-03-18T01:53:40.199Z,102031.84
2023-03-18T01:56:08.437Z,102039.87
2023-03-18T01:58:40.593Z,102037.81
2023-03-18T02:01:31.434Z,102032.66
2023-03-18T02:04:00.454Z,102042.66
2023-03-18T02:06:27.200Z,102042.66
2023-03-18T02:08:54.917Z,102050.31
2023-03-18T02:11:22.945Z,102052.69
2023-03-18T02:13:50.470Z,102049.06
2023-03-18T02:16:28.431Z,102041.91
2023-03-18T02:19:04.864Z,102056.81
2023-03-18T02:24:36.462Z,102059.22
2023-03-18T02:27:19.106Z,102076.66
2023-03-18T02:29:47.756Z,102056.53
2023-03-18T02:32:16.430Z,102077.00
2023-03-18T02:34:45.090Z,102070.37
2023-03-18T02:37:12.042Z,102091.34
2023-03-18T02:39:39.350Z,102089.66
2023-03-18T02:42:06.448Z,102092.47
2023-03-18T02:44:39.865Z,102090.16
2023-03-18T02:49:57.694Z,102094.41
2023-03-18T02:52:24.877Z,102094.44
2023-03-18T02:54:51.493Z,102098.34
2023-03-18T02:57:18.343Z,102100.94
2023-03-18T02:59:45.360Z,102107.69
2023-03-18T03:02:12.094Z,102106.16
2023-03-18T03:04:39.105Z,102101.75
2023-03-18T03:07:07.061Z,102112.03
2023-03-18T03:09:34.760Z,102103.72
2023-03-18T03:12:01.772Z,102111.69
2023-03-18T03:14:29.128Z,102084.56
2023-03-18T03:16:57.306Z,102113.44
2023-03-18T03:19:23.827Z,102106.94
2023-03-18T03:21:50.852Z,102121.87
2023-03-18T03:24:17.362Z,102121.25
2023-03-18T03:26:44.987Z,102113.25
2023-03-18T03:29:12.375Z,102120.81
2023-03-18T03:31:38.919Z,102123.03
2023-03-18T03:34:06.266Z,102120.88
2023-03-18T03:36:33.076Z,102122.53
2023-03-18T03:38:59.697Z,102123.19
2023-03-18T03:41:26.910Z,102104.50
2023-03-18T03:43:54.334Z,102128.00
2023-03-18T03:46:22.201Z,102129.88
2023-03-18T03:48:49.539Z,102127.00
2023-03-18T03:51:16.497Z,102137.94
2023-03-18T03:53:45.448Z,102139.00
2023-03-18T03:56:12.342Z,102140.66
2023-03-18T03:58:39.562Z,102133.50
2023-03-18T04:01:07.966Z,102140.94
2023-03-18T04:03:36.799Z,102141.63
2023-03-18T04:06:06.063Z,102150.12
2023-03-18T04:08:32.816Z,102142.63
2023-03-18T04:10:59.778Z,102145.25
2023-03-18T04:13:26.582Z,102151.16
2023-03-18T04:15:54.153Z,102147.16
2023-03-18T04:18:21.000Z,102153.94
2023-03-18T04:20:48.011Z,102142.94
2023-03-18T04:23:15.278Z,102149.63
2023-03-18T04:25:44.007Z,102146.81
2023-03-18T04:28:10.818Z,102152.84
2023-03-18T04:30:37.465Z,102148.00
2023-03-18T04:33:04.973Z,102133.09
2023-03-18T04:35:31.726Z,102140.84
2023-03-18T04:37:59.824Z,102158.06
2023-03-18T04:40:26.977Z,102155.81
2023-03-18T04:42:53.822Z,102159.31
2023-03-18T04:45:22.417Z,102154.47
2023-03-18T04:47:50.039Z,102141.13
2023-03-18T04:50:17.141Z,102152.53
2023-03-18T04:52:44.438Z,102167.25
2023-03-18T04:55:14.637Z,102153.09
2023-03-18T04:57:42.107Z,102163.50
2023-03-18T05:00:14.225Z,102167.44
2023-03-18T05:02:43.140Z,102157.19
2023-03-18T05:05:10.101Z,102164.00
2023-03-18T05:07:39.713Z,102161.94
2023-03-18T05:10:08.961Z,102171.00
2023-03-18T05:12:36.507Z,102178.66
2023-03-18T05:15:04.834Z,102171.25
2023-03-18T05:17:31.806Z,102177.25
2023-03-18T05:19:58.987Z,102177.38
2023-03-18T05:22:25.805Z,102170.69
2023-03-18T05:24:52.999Z,102175.25
2023-03-18T05:27:20.167Z,102175.34
2023-03-18T05:29:47.758Z,102183.22
2023-03-18T05:32:16.265Z,102179.81
2023-03-18T05:34:43.707Z,102170.50
2023-03-18T05:37:13.516Z,102161.09
2023-03-18T05:39:44.838Z,102183.50
2023-03-18T05:42:12.016Z,102185.31
2023-03-18T05:44:39.636Z,102185.28
2023-03-18T05:47:08.956Z,102178.59
2023-03-18T05:49:39.417Z,102184.69
2023-03-18T05:52:10.364Z,102192.44
2023-03-18T05:54:37.814Z,102189.94
2023-03-18T05:57:04.376Z,102190.78
2023-03-18T05:59:31.549Z,102191.66
2023-03-18T06:01:58.432Z,102189.06
2023-03-18T06:04:26.507Z,102180.38
2023-03-18T06:06:54.596Z,102191.56
2023-03-18T06:09:21.782Z,102194.19
2023-03-18T06:11:48.738Z,102195.03
2023-03-18T06:14:15.299Z,102190.53
2023-03-18T06:16:42.831Z,102200.69
2023-03-18T06:19:11.699Z,102199.91
2023-03-18T06:21:39.564Z,102196.41
2023-03-18T06:24:06.849Z,102194.28
2023-03-18T06:26:34.078Z,102186.47
2023-03-18T06:29:01.038Z,102200.44
2023-03-18T06:31:27.780Z,102196.72
2023-03-18T06:33:54.583Z,102204.91
2023-03-18T06:36:22.091Z,102192.25
2023-03-18T06:38:49.223Z,102191.22
2023-03-18T06:41:17.302Z,102188.69
2023-03-18T06:43:47.323Z,102193.31
2023-03-18T06:46:13.940Z,102197.44
2023-03-18T06:48:43.940Z,102207.91
2023-03-18T06:51:12.009Z,102205.91
2023-03-18T06:53:39.625Z,102200.88
2023-03-18T06:56:07.244Z,102199.25
2023-03-18T06:58:35.021Z,102200.47
2023-03-18T07:01:02.256Z,102205.50
2023-03-18T07:03:29.946Z,102179.28
2023-03-18T07:05:56.738Z,102195.97
2023-03-18T07:08:24.081Z,102195.69
2023-03-18T07:10:54.725Z,102194.03
2023-03-18T07:13:23.561Z,102201.78
2023-03-18T07:15:50.901Z,102194.41
2023-03-18T07:18:17.976Z,102191.31
2023-03-18T07:20:46.020Z,102193.59
2023-03-18T07:23:12.893Z,102196.19
2023-03-18T07:25:41.358Z,102202.97
2023-03-18T07:28:07.943Z,102195.28
2023-03-18T07:30:34.499Z,102196.50
2023-03-18T07:33:03.282Z,102198.25
2023-03-18T07:35:30.290Z,102193.63
2023-03-18T07:37:56.957Z,102198.31
2023-03-18T07:40:23.924Z,102208.34
2023-03-18T07:42:51.232Z,102190.97
2023-03-18T07:45:17.857Z,102201.94
2023-03-18T07:47:47.019Z,102204.81
2023-03-18T07:50:14.257Z,102192.47
2023-03-18T07:52:41.333Z,102196.56
2023-03-18T07:55:08.725Z,102189.66
2023-03-18T07:57:36.180Z,102199.72
2023-03-18T08:00:05.674Z,102201.56
2023-03-18T08:02:40.653Z,102195.91
2023-03-18T08:05:08.271Z,102192.87
2023-03-18T08:07:35.597Z,102195.66
2023-03-18T08:10:02.370Z,102200.34
2023-03-18T08:12:41.626Z,102208.94
2023-03-18T08:15:18.057Z,102199.00
2023-03-18T08:17:44.768Z,102209.06
2023-03-18T08:20:12.881Z,102204.41
2023-03-18T08:22:39.674Z,102202.28
2023-03-18T08:25:06.975Z,102198.38
2023-03-18T08:27:33.591Z,102204.81
2023-03-18T08:30:02.312Z,102214.75
2023-03-18T08:32:31.459Z,102203.00
2023-03-18T08:34:58.187Z,102215.16
2023-03-18T08:37:25.307Z,102214.66
2023-03-18T08:39:52.015Z,102207.94
2023-03-18T08:42:18.684Z,102211.22
2023-03-18T08:44:45.263Z,102213.06
2023-03-18T08:47:12.372Z,102210.31
2023-03-18T08:49:39.114Z,102195.09
2023-03-18T08:52:06.278Z,102192.41
2023-03-18T08:54:33.219Z,102205.53
2023-03-18T08:57:00.058Z,102196.88
2023-03-18T08:59:26.575Z,102202.44
2023-03-18T09:01:53.359Z,102192.66
2023-03-18T09:04:19.948Z,102199.81
2023-03-18T09:06:48.197Z,102194.75
2023-03-18T09:09:15.400Z,102188.56
2023-03-18T09:11:41.978Z,102170.38
2023-03-18T09:14:08.493Z,102192.09
2023-03-18T09:16:35.644Z,102197.50
2023-03-18T09:19:03.008Z,102185.41
2023-03-18T09:21:30.874Z,102180.88
2023-03-18T09:23:58.377Z,102168.84
2023-03-18T09:26:25.048Z,102169.81
2023-03-18T09:28:51.582Z,102171.34
2023-03-18T09:31:18.689Z,102158.34
2023-03-18T09:33:47.150Z,102162.50
2023-03-18T09:36:14.140Z,102164.16
2023-03-18T09:38:41.895Z,102149.72
2023-03-18T09:41:24.075Z,102151.44
2023-03-18T09:44:17.096Z,102143.66
2023-03-18T09:46:57.581Z,102145.50
2023-03-18T09:50:04.857Z,102143.47
2023-03-18T09:52:38.642Z,102144.94
2023-03-18T09:55:26.624Z,102131.75
2023-03-18T09:58:02.487Z,102139.09
2023-03-18T10:00:37.076Z,102139.59
2023-03-18T10:03:10.394Z,102138.78
2023-03-18T10:05:48.240Z,102134.06
2023-03-18T10:08:23.734Z,102128.53
2023-03-18T10:10:50.595Z,102129.09
2023-03-18T10:13:42.070Z,102122.91
2023-03-18T10:16:19.870Z,102116.41
2023-03-18T10:18:47.189Z,102109.69
2023-03-18T10:21:29.021Z,102109.06
2023-03-18T10:24:24.777Z,102101.19
2023-03-18T10:27:08.246Z,102104.97
2023-03-18T10:29:41.795Z,102098.16
2023-03-18T10:32:29.312Z,102106.59
2023-03-18T10:35:14.212Z,102107.69
2023-03-18T10:37:57.259Z,102102.38
2023-03-18T10:40:25.168Z,102103.25
2023-03-18T10:42:53.359Z,102100.50
2023-03-18T10:45:24.642Z,102104.28
2023-03-18T10:48:01.560Z,102099.22
2023-03-18T10:50:35.797Z,102099.09
2023-03-18T10:53:07.914Z,102089.16
2023-03-18T10:55:57.763Z,102090.09
2023-03-18T10:58:24.524Z,102086.09
2023-03-18T11:00:52.254Z,102081.28
2023-03-18T11:03:40.461Z,102079.09
2023-03-18T11:06:15.818Z,102078.38
2023-03-18T11:08:45.982Z,102071.69
2023-03-18T11:11:34.593Z,102067.09
2023-03-18T11:14:04.184Z,102070.78
2023-03-18T11:16:49.536Z,102068.06
2023-03-18T11:19:29.266Z,102061.56
2023-03-18T11:22:06.228Z,102061.97
2023-03-18T11:24:39.050Z,102055.00
2023-03-18T11:27:24.633Z,102053.41
2023-03-18T11:29:58.016Z,102061.19
2023-03-18T11:32:30.669Z,102064.69
2023-03-18T11:35:00.035Z,102058.44
2023-03-18T11:37:37.963Z,102053.38
2023-03-18T11:40:23.054Z,102056.59
2023-03-18T11:42:55.676Z,102046.09
2023-03-18T11:45:45.455Z,102041.16
2023-03-18T11:48:17.336Z,102033.97
2023-03-18T11:51:05.456Z,102036.81
2023-03-18T11:53:50.762Z,102041.72
2023-03-18T11:56:34.820Z,102041.72
2023-03-18T11:59:20.467Z,102038.72
2023-03-18T12:01:49.010Z,102025.66
2023-03-18T12:04:31.647Z,102031.44
2023-03-18T12:07:38.430Z,102032.44
2023-03-18T12:10:24.110Z,102033.81
2023-03-18T12:13:11.389Z,102031.44
2023-03-18T12:16:03.181Z,102029.47
2023-03-18T12:18:42.729Z,102026.19
2023-03-18T12:21:27.602Z,102024.47
2023-03-18T12:24:34.139Z,102011.94
2023-03-18T12:27:20.657Z,101994.62
2023-03-18T12:30:02.999Z,102017.22
2023-03-18T12:32:43.297Z,102007.78
2023-03-18T12:35:25.815Z,102014.47
2023-03-18T12:38:05.090Z,101993.06
2023-03-18T12:41:04.004Z,102002.78
2023-03-18T12:43:54.995Z,101997.03
2023-03-18T12:46:46.339Z,101999.97
2023-03-18T12:49:34.223Z,102001.25
2023-03-18T12:52:07.668Z,101985.28
2023-03-18T12:54:48.763Z,101986.69
2023-03-18T12:57:37.452Z,101970.38
2023-03-18T13:00:18.121Z,101984.16
2023-03-18T13:03:05.501Z,101977.84
2023-03-18T13:05:42.186Z,101983.69
2023-03-18T13:08:31.829Z,101978.94
2023-03-18T13:11:24.262Z,101956.00
2023-03-18T13:13:56.568Z,101974.12
2023-03-18T13:16:24.674Z,101973.41
2023-03-18T13:18:54.441Z,101968.97
2023-03-18T13:21:25.678Z,101972.41
2023-03-18T13:24:21.242Z,101971.16
2023-03-18T13:27:27.518Z,101973.81
2023-03-18T13:30:05.573Z,101974.28
2023-03-18T13:32:59.248Z,101979.69
2023-03-18T13:35:37.409Z,101965.84
2023-03-18T13:38:12.095Z,101966.56
2023-03-18T13:41:01.869Z,101965.87
2023-03-18T13:43:31.628Z,101965.81
2023-03-18T13:45:59.321Z,101964.84
2023-03-18T13:48:31.307Z,101956.03
2023-03-18T13:50:59.177Z,101957.81
2023-03-18T13:53:30.459Z,101948.28
2023-03-18T13:56:02.850Z,101955.53
2023-03-18T13:58:44.525Z,101941.72
2023-03-18T14:01:24.893Z,101945.94
2023-03-18T14:03:56.391Z,101947.66
2023-03-18T14:06:45.732Z,101940.84
2023-03-18T14:09:33.564Z,101930.66
2023-03-18T14:12:18.248Z,101934.50
2023-03-18T14:15:17.402Z,101934.31
2023-03-18T14:17:47.203Z,101933.78
2023-03-18T14:20:27.259Z,101938.97
2023-03-18T14:22:56.598Z,101936.44
2023-03-18T14:25:40.287Z,101933.12
2023-03-18T14:28:14.972Z,101927.09
2023-03-18T14:30:44.537Z,101926.53
2023-03-18T14:33:32.610Z,101927.34
2023-03-18T14:36:10.304Z,101921.09
2023-03-18T14:38:48.950Z,101925.88
2023-03-18T14:41:24.323Z,101929.44
2023-03-18T14:44:16.728Z,101927.97
2023-03-18T14:46:45.819Z,101931.97
2023-03-18T14:49:32.265Z,101928.69
2023-03-18T14:52:00.194Z,101925.91
2023-03-18T14:54:30.817Z,101925.16
2023-03-18T14:56:58.578Z,101926.56
2023-03-18T14:59:25.699Z,101922.97
2023-03-18T15:01:54.740Z,101928.37
2023-03-18T15:04:24.373Z,101937.34
2023-03-18T15:06:52.676Z,101938.09
2023-03-18T15:09:25.013Z,101932.97
2023-03-18T15:11:53.204Z,101942.31
2023-03-18T15:14:22.824Z,101947.63
2023-03-18T15:16:51.736Z,101941.38
2023-03-18T15:19:19.846Z,101923.50
2023-03-18T15:21:46.701Z,101947.56
2023-03-18T15:24:19.937Z,101943.31
2023-03-18T15:26:57.327Z,101945.47
2023-03-18T15:29:28.374Z,101942.75
2023-03-18T15:32:18.188Z,101939.81
2023-03-18T15:34:52.534Z,101910.50
2023-03-18T15:37:35.639Z,101941.41
2023-03-18T15:40:31.611Z,101945.03
2023-03-18T15:43:18.539Z,101936.84
2023-03-18T15:45:52.078Z,101920.94
2023-03-18T15:48:26.513Z,101933.47
2023-03-18T15:50:56.443Z,101911.47
2023-03-18T15:53:26.171Z,101924.69
2023-03-18T15:55:55.632Z,101935.19
2023-03-18T15:58:26.599Z,101934.25
2023-03-18T16:00:55.920Z,101937.38
2023-03-18T16:03:25.743Z,101944.91
2023-03-18T16:05:53.064Z,101942.06
2023-03-18T16:08:21.263Z,101943.66
2023-03-18T16:10:52.086Z,101945.63
2023-03-18T16:13:24.486Z,101951.87
2023-03-18T16:15:52.600Z,101950.44
2023-03-18T16:18:21.277Z,101948.97
2023-03-18T16:20:49.843Z,101946.22
2023-03-18T16:23:18.083Z,101946.84
2023-03-18T16:25:51.704Z,101946.84
2023-03-18T16:28:22.229Z,101944.34
2023-03-18T16:30:51.776Z,101952.44
2023-03-18T16:33:21.163Z,101944.63
2023-03-18T16:35:56.162Z,101940.56
2023-03-18T16:38:23.102Z,101918.19
2023-03-18T16:40:50.006Z,101939.59
2023-03-18T16:43:21.633Z,101944.75
2023-03-18T16:45:50.215Z,101943.06
2023-03-18T16:48:20.727Z,101935.25
2023-03-18T16:50:50.150Z,101939.50
2023-03-18T16:53:21.669Z,101910.31
2023-03-18T16:55:53.720Z,101939.47
2023-03-18T16:58:28.290Z,101931.50
2023-03-18T17:00:55.303Z,101919.34
2023-03-18T17:03:22.430Z,101941.78
2023-03-18T17:05:50.099Z,101931.19
2023-03-18T17:08:18.216Z,101939.75
2023-03-18T17:10:48.677Z,101936.62
2023-03-18T17:13:19.928Z,101942.37
2023-03-18T17:15:46.832Z,101946.00
2023-03-18T17:18:16.557Z,101946.03
2023-03-18T17:20:44.262Z,101942.56
2023-03-18T17:23:15.852Z,101943.41
2023-03-18T17:25:47.775Z,101937.47
2023-03-18T17:28:20.736Z,101930.59
2023-03-18T17:30:48.110Z,101936.38
2023-03-18T17:33:23.563Z,101935.41
2023-03-18T17:35:51.736Z,101939.03
2023-03-18T17:38:20.080Z,101926.72
2023-03-18T17:40:48.902Z,101930.03
2023-03-18T17:43:31.293Z,101930.56
2023-03-18T17:46:00.166Z,101922.81
2023-03-18T17:48:29.188Z,101922.78
2023-03-18T17:50:58.083Z,101916.00
2023-03-18T17:53:47.417Z,101927.12
2023-03-18T17:56:16.208Z,101928.13
2023-03-18T17:58:46.670Z,101924.59
2023-03-18T18:01:18.001Z,101923.03
2023-03-18T18:03:45.158Z,101921.34
2023-03-18T18:06:18.271Z,101922.19
2023-03-18T18:08:45.316Z,101932.50
2023-03-18T18:11:19.761Z,101941.28
2023-03-18T18:13:47.103Z,101947.53
2023-03-18T18:16:13.853Z,101949.53
2023-03-18T18:18:41.117Z,101951.87
2023-03-18T18:21:19.300Z,101948.56
2023-03-18T18:23:46.105Z,101941.78
2023-03-18T18:26:15.361Z,101946.94
2023-03-18T18:28:44.732Z,101941.72
2023-03-18T18:31:12.629Z,101949.47
2023-03-18T18:33:41.760Z,101927.03
2023-03-18T18:36:09.278Z,101934.72
2023-03-18T18:38:36.025Z,101943.34
2023-03-18T18:41:03.396Z,101939.94
2023-03-18T18:43:30.116Z,101945.97
2023-03-18T18:45:57.585Z,101931.31
2023-03-18T18:48:34.673Z,101947.69
2023-03-18T18:51:02.918Z,101942.56
2023-03-18T18:53:35.986Z,101943.44
2023-03-18T18:56:25.639Z,101941.69
2023-03-18T18:58:52.774Z,101940.00
2023-03-18T19:01:19.556Z,101940.91
2023-03-18T19:03:47.701Z,101941.75
2023-03-18T19:06:31.745Z,101921.97
2023-03-18T19:09:01.062Z,101919.41
2023-03-18T19:11:28.497Z,101930.56
2023-03-18T19:14:17.774Z,101918.50
2023-03-18T19:16:45.711Z,101925.44
2023-03-18T19:19:15.742Z,101931.47
2023-03-18T19:21:43.293Z,101925.41
2023-03-18T19:24:24.983Z,101929.72
2023-03-18T19:26:54.298Z,101885.81
2023-03-18T19:29:21.549Z,101915.09
2023-03-18T19:31:48.173Z,101915.97
2023-03-18T19:34:16.854Z,101917.69
2023-03-18T19:36:47.906Z,101912.50
2023-03-18T19:39:16.905Z,101888.41
2023-03-18T19:41:45.079Z,101916.84
2023-03-18T19:44:17.278Z,101901.34
2023-03-18T19:46:46.011Z,101898.72
2023-03-18T19:49:26.497Z,101909.09
2023-03-18T19:51:54.341Z,101905.63
2023-03-18T19:54:39.199Z,101874.66
2023-03-18T19:57:15.454Z,101896.16
2023-03-18T19:59:42.964Z,101891.00
2023-03-18T20:02:27.998Z,101890.13
2023-03-18T20:04:57.408Z,101880.66
2023-03-18T20:07:26.426Z,101885.69
2023-03-18T20:09:53.958Z,101889.06
2023-03-18T20:12:31.394Z,101885.41
2023-03-18T20:14:57.875Z,101881.16
2023-03-18T20:17:29.774Z,101878.59
2023-03-18T20:19:57.064Z,101881.97
2023-03-18T20:22:29.813Z,101861.53
2023-03-18T20:24:56.586Z,101878.81
2023-03-18T20:27:23.299Z,101871.09
2023-03-18T20:29:49.883Z,101869.38
2023-03-18T20:32:16.664Z,101868.44
2023-03-18T20:34:45.466Z,101860.78
2023-03-18T20:37:28.132Z,101860.75
2023-03-18T20:39:55.038Z,101860.53
2023-03-18T20:42:21.519Z,101858.06
2023-03-18T20:44:48.070Z,101852.06
2023-03-18T20:47:14.985Z,101856.44
2023-03-18T20:49:43.930Z,101849.47
2023-03-18T20:52:29.169Z,101851.22
2023-03-18T20:54:56.848Z,101854.69
2023-03-18T20:57:24.776Z,101853.75
2023-03-18T20:59:51.652Z,101846.06
2023-03-18T21:02:26.412Z,101855.50
2023-03-18T21:04:52.978Z,101852.03
2023-03-18T21:07:20.035Z,101855.41
2023-03-18T21:09:46.481Z,101851.16
2023-03-18T21:12:17.019Z,101853.63
2023-03-18T21:14:44.162Z,101852.84
2023-03-18T21:17:20.696Z,101852.91
2023-03-18T21:19:49.754Z,101854.63
2023-03-18T21:25:22.210Z,101848.56
2023-03-18T21:27:49.705Z,101845.12
2023-03-18T21:30:21.254Z,101843.44
2023-03-18T21:32:49.797Z,101842.53
2023-03-18T21:35:22.482Z,101851.09
2023-03-18T21:37:49.516Z,101840.72
2023-03-18T21:40:18.975Z,101841.59
2023-03-18T21:42:45.944Z,101840.75
2023-03-18T21:45:15.999Z,101845.84
2023-03-18T21:47:42.675Z,101846.69
2023-03-18T21:50:17.997Z,101850.13
2023-03-18T21:52:45.736Z,101852.59
2023-03-18T21:55:19.660Z,101854.37
2023-03-18T21:57:48.988Z,101845.78
2023-03-18T22:00:19.295Z,101846.63
2023-03-18T22:02:47.399Z,101840.59
2023-03-18T22:05:29.841Z,101846.59
2023-03-18T22:07:56.662Z,101846.59
2023-03-18T22:10:23.285Z,101849.84
2023-03-18T22:12:50.354Z,101847.41
2023-03-18T22:15:33.252Z,101847.44
2023-03-18T22:18:00.001Z,101852.44
2023-03-18T22:20:27.347Z,101845.62
2023-03-18T22:22:54.041Z,101844.72
2023-03-18T22:25:31.869Z,101836.87
2023-03-18T22:27:59.810Z,101837.00
2023-03-18T22:30:29.102Z,101831.75
2023-03-18T22:32:56.869Z,101840.00
2023-03-18T22:35:26.900Z,101831.66
2023-03-18T22:37:54.174Z,101818.84
2023-03-18T22:40:23.160Z,101828.09
2023-03-18T22:42:52.849Z,101822.88
2023-03-18T22:45:22.678Z,101820.19
2023-03-18T22:47:50.904Z,101824.69
2023-03-18T22:50:18.356Z,101817.78
2023-03-18T22:52:46.170Z,101810.09
2023-03-18T22:55:21.086Z,101814.41
2023-03-18T22:57:49.027Z,101815.28
2023-03-18T23:00:24.000Z,101807.44
2023-03-18T23:02:52.270Z,101806.66
2023-03-18T23:05:21.448Z,101800.94
2023-03-18T23:07:48.250Z,101796.94
2023-03-18T23:10:15.868Z,101800.38
2023-03-18T23:12:42.928Z,101800.31
2023-03-18T23:15:16.526Z,101791.00
2023-03-18T23:17:44.095Z,101797.56
2023-03-18T23:20:13.195Z,101795.91
2023-03-18T23:22:41.162Z,101787.28
2023-03-18T23:25:13.580Z,101789.91
2023-03-18T23:27:46.008Z,101789.06
2023-03-18T23:30:13.170Z,101771.88
2023-03-18T23:32:40.692Z,101780.44
2023-03-18T23:35:08.553Z,101766.81
2023-03-18T23:37:35.785Z,101766.84
2023-03-18T23:40:02.848Z,101768.34
2023-03-18T23:42:29.914Z,101761.34
2023-03-18T23:44:56.658Z,101764.00
2023-03-18T23:47:23.337Z,101753.22
2023-03-18T23:49:49.856Z,101749.97
2023-03-18T23:52:16.724Z,101751.87
2023-03-18T23:54:43.273Z,101753.75
2023-03-18T23:57:11.136Z,101749.91
2023-03-18T23:59:38.218Z,101755.56
